createdAt,value
2017-08-01T00:00:32.613Z,26.24
2017-08-01T00:01:13.076Z,26.34
2017-08-01T00:01:53.528Z,26.3
2017-08-01T00:02:33.981Z,26.27
2017-08-01T00:03:14.437Z,26.31
2017-08-01T00:03:54.898Z,26.31
2017-08-01T00:04:35.354Z,26.33
2017-08-01T00:05:15.809Z,26.33
2017-08-01T00:05:56.280Z,26.29
2017-08-01T00:06:36.714Z,26.29
2017-08-01T00:07:17.189Z,26.27
2017-08-01T00:07:57.634Z,26.34
2017-08-01T00:08:38.085Z,26.31
2017-08-01T00:09:18.542Z,26.31
2017-08-01T00:09:59.002Z,26.33
2017-08-01T00:10:39.462Z,26.31
2017-08-01T00:11:19.913Z,26.31
2017-08-01T00:12:00.370Z,26.3
2017-08-01T00:12:40.824Z,26.31
2017-08-01T00:13:21.282Z,26.33
2017-08-01T00:14:01.735Z,26.31
2017-08-01T00:14:42.188Z,26.33
2017-08-01T00:15:22.638Z,26.31
2017-08-01T00:16:03.095Z,26.3
2017-08-01T00:16:43.544Z,26.3
2017-08-01T00:17:24.004Z,26.31
2017-08-01T00:18:04.455Z,26.34
2017-08-01T00:18:44.913Z,26.31
2017-08-01T00:19:25.367Z,26.33
2017-08-01T00:20:05.828Z,26.3
2017-08-01T00:20:46.280Z,26.37
2017-08-01T00:21:26.731Z,26.31
2017-08-01T00:22:07.218Z,26.31
2017-08-01T00:22:47.671Z,26.36
2017-08-01T00:23:28.130Z,26.31
2017-08-01T00:24:08.592Z,26.29
2017-08-01T00:24:49.051Z,26.3
2017-08-01T00:25:29.499Z,26.29
2017-08-01T00:26:09.961Z,26.31
2017-08-01T00:26:50.417Z,26.29
2017-08-01T00:27:30.871Z,26.27
2017-08-01T00:28:11.326Z,26.31
2017-08-01T00:28:51.781Z,26.23
2017-08-01T00:29:32.235Z,26.29
2017-08-01T00:30:12.692Z,26.24
2017-08-01T00:30:53.155Z,26.3
2017-08-01T00:31:33.617Z,26.34
2017-08-01T00:32:14.072Z,26.3
2017-08-01T00:32:54.564Z,26.29
2017-08-01T00:33:35.026Z,26.33
2017-08-01T00:34:15.481Z,26.23
2017-08-01T00:34:55.941Z,26.29
2017-08-01T00:35:36.396Z,26.24
2017-08-01T00:36:16.845Z,26.27
2017-08-01T00:36:57.302Z,26.33
2017-08-01T00:37:37.760Z,26.23
2017-08-01T00:38:18.242Z,26.24
2017-08-01T00:38:58.674Z,26.29
2017-08-01T00:39:39.129Z,26.27
2017-08-01T00:40:19.589Z,26.3
2017-08-01T00:41:00.043Z,26.27
2017-08-01T00:41:40.511Z,26.27
2017-08-01T00:42:20.967Z,26.24
2017-08-01T00:43:01.421Z,26.27
2017-08-01T00:43:41.881Z,26.3
2017-08-01T00:44:22.357Z,26.31
2017-08-01T00:45:02.823Z,26.27
2017-08-01T00:45:43.284Z,26.3
2017-08-01T00:46:23.736Z,26.27
2017-08-01T00:47:04.186Z,26.29
2017-08-01T00:47:44.653Z,26.27
2017-08-01T00:48:25.109Z,26.22
2017-08-01T00:49:05.573Z,26.3
2017-08-01T00:49:46.021Z,26.24
2017-08-01T00:50:26.476Z,26.29
2017-08-01T00:51:06.935Z,26.31
2017-08-01T00:51:47.393Z,26.22
2017-08-01T00:52:27.852Z,26.27
2017-08-01T00:53:08.312Z,26.27
2017-08-01T00:53:48.765Z,26.29
2017-08-01T00:54:29.223Z,26.24
2017-08-01T00:55:09.673Z,26.27
2017-08-01T00:55:50.128Z,26.19
2017-08-01T00:56:30.588Z,26.3
2017-08-01T00:57:11.040Z,26.26
2017-08-01T00:57:51.501Z,26.23
2017-08-01T00:58:31.950Z,26.23
2017-08-01T00:59:12.403Z,26.08
2017-08-01T00:59:52.861Z,26.19
2017-08-01T01:00:33.318Z,26.11
2017-08-01T01:01:13.783Z,26.16
2017-08-01T01:01:54.237Z,26.19
2017-08-01T01:02:34.696Z,26.04
2017-08-01T01:03:15.153Z,26.16
2017-08-01T01:03:55.609Z,26.11
2017-08-01T01:04:36.062Z,26.18
2017-08-01T01:05:16.521Z,26.07
2017-08-01T01:05:56.975Z,26.1
2017-08-01T01:06:37.422Z,26.16
2017-08-01T01:07:17.882Z,26.04
2017-08-01T01:07:58.342Z,26.11
2017-08-01T01:08:38.801Z,26.16
2017-08-01T01:09:19.258Z,26.18
2017-08-01T01:09:59.717Z,26.13
2017-08-01T01:10:40.177Z,26.16
2017-08-01T01:11:20.629Z,26.01
2017-08-01T01:12:01.087Z,26.18
2017-08-01T01:12:41.547Z,26.1
2017-08-01T01:13:22.006Z,26.11
2017-08-01T01:14:02.467Z,26.13
2017-08-01T01:14:42.917Z,26.16
2017-08-01T01:15:23.373Z,26.08
2017-08-01T01:16:03.826Z,26.08
2017-08-01T01:16:44.276Z,26.13
2017-08-01T01:17:24.731Z,26.08
2017-08-01T01:18:05.188Z,26.1
2017-08-01T01:18:45.650Z,26.13
2017-08-01T01:19:26.100Z,26.01
2017-08-01T01:20:06.562Z,26.01
2017-08-01T01:20:47.017Z,26.07
2017-08-01T01:21:27.504Z,26.04
2017-08-01T01:22:07.967Z,25.96
2017-08-01T01:22:48.425Z,25.99
2017-08-01T01:23:28.882Z,25.99
2017-08-01T01:24:09.340Z,25.95
2017-08-01T01:24:49.797Z,25.81
2017-08-01T01:25:30.253Z,25.91
2017-08-01T01:26:10.717Z,25.95
2017-08-01T01:26:51.174Z,25.92
2017-08-01T01:27:31.633Z,25.85
2017-08-01T01:28:12.095Z,25.85
2017-08-01T01:28:52.547Z,25.81
2017-08-01T01:29:33.013Z,25.74
2017-08-01T01:30:13.468Z,25.71
2017-08-01T01:30:53.920Z,25.71
2017-08-01T01:31:34.381Z,25.73
2017-08-01T01:32:14.836Z,25.68
2017-08-01T01:32:55.298Z,25.61
2017-08-01T01:33:35.757Z,25.7
2017-08-01T01:34:16.214Z,25.66
2017-08-01T01:34:56.671Z,25.67
2017-08-01T01:35:37.129Z,25.59
2017-08-01T01:36:17.589Z,25.56
2017-08-01T01:36:58.044Z,25.56
2017-08-01T01:37:38.505Z,25.56
2017-08-01T01:38:18.958Z,25.56
2017-08-01T01:38:59.414Z,25.63
2017-08-01T01:39:39.869Z,25.59
2017-08-01T01:40:20.321Z,25.56
2017-08-01T01:41:00.779Z,25.58
2017-08-01T01:41:41.270Z,25.63
2017-08-01T01:42:21.717Z,25.56
2017-08-01T01:43:02.173Z,25.56
2017-08-01T01:43:42.620Z,25.59
2017-08-01T01:44:23.059Z,25.58
2017-08-01T01:45:03.523Z,25.54
2017-08-01T01:45:43.980Z,25.55
2017-08-01T01:46:24.436Z,25.58
2017-08-01T01:47:04.899Z,25.58
2017-08-01T01:47:45.365Z,25.55
2017-08-01T01:48:25.825Z,25.56
2017-08-01T01:49:06.271Z,25.58
2017-08-01T01:49:46.728Z,25.59
2017-08-01T01:50:27.184Z,25.58
2017-08-01T01:51:07.644Z,25.49
2017-08-01T01:51:48.100Z,25.56
2017-08-01T01:52:28.543Z,25.59
2017-08-01T01:53:08.999Z,25.59
2017-08-01T01:53:49.455Z,25.56
2017-08-01T01:54:29.914Z,25.59
2017-08-01T01:55:10.367Z,25.56
2017-08-01T01:55:50.822Z,25.58
2017-08-01T01:56:31.281Z,25.54
2017-08-01T01:57:11.727Z,25.61
2017-08-01T01:57:52.186Z,25.63
2017-08-01T01:58:32.693Z,25.62
2017-08-01T01:59:13.154Z,25.66
2017-08-01T01:59:53.608Z,25.59
2017-08-01T02:00:34.068Z,25.67
2017-08-01T02:01:14.527Z,25.68
2017-08-01T02:01:54.982Z,25.63
2017-08-01T02:02:35.465Z,25.67
2017-08-01T02:03:15.921Z,25.62
2017-08-01T02:03:56.393Z,25.59
2017-08-01T02:04:36.824Z,25.68
2017-08-01T02:05:17.279Z,25.66
2017-08-01T02:05:57.738Z,25.66
2017-08-01T02:06:38.195Z,25.68
2017-08-01T02:07:18.664Z,25.66
2017-08-01T02:07:59.119Z,25.67
2017-08-01T02:08:39.576Z,25.67
2017-08-01T02:09:20.023Z,25.59
2017-08-01T02:10:00.490Z,25.67
2017-08-01T02:10:40.936Z,25.66
2017-08-01T02:11:21.394Z,25.66
2017-08-01T02:12:01.844Z,25.66
2017-08-01T02:12:42.304Z,25.66
2017-08-01T02:13:22.760Z,25.66
2017-08-01T02:14:03.219Z,25.67
2017-08-01T02:14:43.670Z,25.66
2017-08-01T02:15:24.125Z,25.68
2017-08-01T02:16:04.575Z,25.63
2017-08-01T02:16:45.039Z,25.67
2017-08-01T02:17:25.487Z,25.68
2017-08-01T02:18:05.942Z,25.71
2017-08-01T02:18:46.394Z,25.68
2017-08-01T02:19:26.854Z,25.71
2017-08-01T02:20:07.418Z,25.74
2017-08-01T02:20:47.746Z,25.61
2017-08-01T02:21:28.202Z,25.67
2017-08-01T02:22:08.655Z,25.71
2017-08-01T02:22:49.124Z,25.71
2017-08-01T02:23:29.573Z,25.66
2017-08-01T02:24:10.026Z,25.68
2017-08-01T02:24:50.478Z,25.7
2017-08-01T02:25:30.929Z,25.73
2017-08-01T02:26:11.391Z,25.66
2017-08-01T02:26:51.839Z,25.74
2017-08-01T02:27:32.292Z,25.7
2017-08-01T02:28:12.747Z,25.76
2017-08-01T02:28:53.205Z,25.7
2017-08-01T02:29:33.663Z,25.71
2017-08-01T02:30:14.114Z,25.71
2017-08-01T02:30:54.572Z,25.73
2017-08-01T02:31:35.037Z,25.7
2017-08-01T02:32:15.492Z,25.7
2017-08-01T02:32:55.945Z,25.68
2017-08-01T02:33:36.405Z,25.67
2017-08-01T02:34:16.862Z,25.67
2017-08-01T02:34:57.322Z,25.78
2017-08-01T02:35:37.781Z,25.68
2017-08-01T02:36:18.239Z,25.73
2017-08-01T02:36:58.700Z,25.62
2017-08-01T02:37:39.158Z,25.59
2017-08-01T02:38:19.612Z,25.68
2017-08-01T02:39:00.072Z,25.66
2017-08-01T02:39:40.533Z,25.54
2017-08-01T02:40:20.991Z,25.61
2017-08-01T02:41:01.447Z,25.59
2017-08-01T02:41:41.914Z,25.67
2017-08-01T02:42:22.365Z,25.71
2017-08-01T02:43:02.826Z,25.63
2017-08-01T02:43:43.286Z,25.56
2017-08-01T02:44:23.749Z,25.74
2017-08-01T02:45:04.205Z,25.68
2017-08-01T02:45:44.666Z,25.73
2017-08-01T02:46:25.122Z,25.66
2017-08-01T02:47:05.581Z,25.62
2017-08-01T02:47:46.037Z,25.66
2017-08-01T02:48:26.508Z,25.62
2017-08-01T02:49:06.946Z,25.66
2017-08-01T02:49:47.399Z,25.63
2017-08-01T02:50:27.858Z,25.62
2017-08-01T02:51:08.318Z,25.62
2017-08-01T02:51:48.772Z,25.7
2017-08-01T02:52:29.228Z,25.62
2017-08-01T02:53:09.684Z,25.63
2017-08-01T02:53:50.147Z,25.63
2017-08-01T02:54:30.604Z,25.66
2017-08-01T02:55:11.064Z,25.71
2017-08-01T02:55:51.519Z,25.59
2017-08-01T02:56:31.975Z,25.62
2017-08-01T02:57:12.440Z,25.67
2017-08-01T02:57:52.888Z,25.62
2017-08-01T02:58:33.355Z,25.63
2017-08-01T02:59:13.817Z,25.68
2017-08-01T02:59:54.271Z,25.59
2017-08-01T03:00:34.737Z,25.61
2017-08-01T03:01:15.194Z,25.61
2017-08-01T03:01:55.649Z,25.54
2017-08-01T03:02:36.143Z,25.52
2017-08-01T03:03:16.573Z,25.56
2017-08-01T03:03:57.045Z,25.51
2017-08-01T03:04:37.504Z,25.43
2017-08-01T03:05:17.958Z,25.43
2017-08-01T03:05:58.411Z,25.49
2017-08-01T03:06:38.869Z,25.49
2017-08-01T03:07:19.347Z,25.52
2017-08-01T03:07:59.801Z,25.48
2017-08-01T03:08:40.255Z,25.36
2017-08-01T03:09:20.710Z,25.34
2017-08-01T03:10:01.173Z,25.36
2017-08-01T03:10:41.628Z,25.43
2017-08-01T03:11:22.090Z,25.36
2017-08-01T03:12:02.548Z,25.39
2017-08-01T03:12:43.006Z,25.39
2017-08-01T03:13:23.458Z,25.46
2017-08-01T03:14:03.919Z,25.36
2017-08-01T03:15:51.451Z,25.37
2017-08-01T03:16:31.910Z,25.4
2017-08-01T03:17:12.375Z,25.4
2017-08-01T03:17:52.812Z,25.48
2017-08-01T03:18:33.244Z,25.37
2017-08-01T03:19:13.697Z,25.37
2017-08-01T03:19:54.154Z,25.46
2017-08-01T03:20:34.613Z,25.49
2017-08-01T03:21:15.067Z,25.49
2017-08-01T03:21:55.521Z,25.52
2017-08-01T03:22:35.975Z,25.51
2017-08-01T03:23:16.433Z,25.49
2017-08-01T03:23:56.871Z,25.54
2017-08-01T03:24:37.338Z,25.46
2017-08-01T03:25:17.795Z,25.52
2017-08-01T03:25:58.254Z,25.58
2017-08-01T03:26:38.700Z,25.49
2017-08-01T03:27:19.157Z,25.49
2017-08-01T03:27:59.614Z,25.51
2017-08-01T03:28:40.067Z,25.52
2017-08-01T03:29:20.521Z,25.49
2017-08-01T03:30:00.981Z,25.44
2017-08-01T03:30:41.436Z,25.39
2017-08-01T03:31:21.887Z,25.37
2017-08-01T03:32:02.336Z,25.34
2017-08-01T03:32:42.881Z,25.41
2017-08-01T03:33:23.336Z,25.44
2017-08-01T03:34:03.795Z,25.46
2017-08-01T03:34:44.252Z,25.48
2017-08-01T03:35:24.712Z,25.49
2017-08-01T03:36:05.168Z,25.41
2017-08-01T03:36:45.624Z,25.58
2017-08-01T03:37:26.074Z,25.52
2017-08-01T03:38:06.534Z,25.52
2017-08-01T03:38:46.993Z,25.55
2017-08-01T03:39:27.456Z,25.55
2017-08-01T03:40:07.904Z,25.54
2017-08-01T03:40:48.369Z,25.58
2017-08-01T03:41:28.830Z,25.61
2017-08-01T03:42:09.285Z,25.55
2017-08-01T03:42:49.743Z,25.62
2017-08-01T03:43:30.202Z,25.63
2017-08-01T03:44:10.657Z,25.68
2017-08-01T03:44:51.101Z,25.71
2017-08-01T03:45:31.562Z,25.59
2017-08-01T03:46:12.014Z,25.66
2017-08-01T03:46:52.464Z,25.68
2017-08-01T03:47:32.921Z,25.73
2017-08-01T03:48:13.374Z,25.73
2017-08-01T03:48:53.835Z,25.81
2017-08-01T03:49:34.297Z,25.88
2017-08-01T03:50:14.783Z,25.88
2017-08-01T03:50:55.234Z,25.89
2017-08-01T03:51:35.694Z,25.98
2017-08-01T03:52:16.149Z,25.96
2017-08-01T03:52:56.600Z,25.93
2017-08-01T03:53:37.054Z,25.99
2017-08-01T03:54:17.497Z,25.99
2017-08-01T03:54:57.952Z,26.06
2017-08-01T03:55:38.395Z,25.99
2017-08-01T03:56:18.851Z,26.01
2017-08-01T03:56:59.304Z,26.03
2017-08-01T03:57:39.748Z,26.08
2017-08-01T03:58:20.205Z,26.08
2017-08-01T03:59:00.657Z,26.03
2017-08-01T03:59:41.108Z,26.04
2017-08-01T04:00:21.572Z,26.11
2017-08-01T04:01:02.028Z,26.03
2017-08-01T04:01:42.490Z,26.13
2017-08-01T04:02:22.950Z,26.16
2017-08-01T04:03:03.408Z,26.07
2017-08-01T04:03:43.863Z,26.06
2017-08-01T04:04:24.312Z,26.07
2017-08-01T04:05:04.764Z,26.06
2017-08-01T04:05:45.222Z,26.01
2017-08-01T04:06:25.681Z,26.15
2017-08-01T04:07:06.136Z,26.07
2017-08-01T04:07:46.586Z,26.15
2017-08-01T04:08:27.049Z,26.08
2017-08-01T04:09:07.572Z,26.15
2017-08-01T04:09:48.004Z,26.16
2017-08-01T04:10:28.457Z,26.13
2017-08-01T04:11:08.911Z,26.13
2017-08-01T04:11:49.368Z,26.15
2017-08-01T04:12:29.826Z,26.13
2017-08-01T04:13:10.283Z,26.13
2017-08-01T04:13:50.744Z,26.18
2017-08-01T04:14:31.200Z,26.13
2017-08-01T04:15:11.657Z,26.11
2017-08-01T04:15:52.111Z,26.19
2017-08-01T04:16:32.570Z,26.19
2017-08-01T04:17:13.025Z,26.11
2017-08-01T04:17:53.477Z,26.13
2017-08-01T04:18:33.930Z,26.16
2017-08-01T04:19:14.397Z,26.07
2017-08-01T04:19:54.856Z,26.11
2017-08-01T04:20:35.311Z,26.13
2017-08-01T04:21:15.764Z,26.22
2017-08-01T04:21:56.223Z,26.11
2017-08-01T04:22:36.674Z,26.18
2017-08-01T04:23:17.142Z,26.19
2017-08-01T04:23:57.590Z,26.16
2017-08-01T04:24:38.049Z,26.13
2017-08-01T04:25:18.505Z,26.15
2017-08-01T04:25:58.959Z,26.18
2017-08-01T04:26:39.420Z,26.13
2017-08-01T04:27:19.871Z,26.13
2017-08-01T04:28:00.334Z,26.1
2017-08-01T04:28:40.792Z,26.16
2017-08-01T04:29:21.240Z,26.18
2017-08-01T04:30:01.694Z,26.19
2017-08-01T04:30:42.157Z,26.13
2017-08-01T04:31:22.668Z,26.16
2017-08-01T04:32:03.125Z,26.18
2017-08-01T04:32:43.601Z,26.1
2017-08-01T04:33:24.039Z,26.13
2017-08-01T04:34:04.496Z,26.22
2017-08-01T04:34:44.962Z,26.26
2017-08-01T04:35:25.417Z,26.15
2017-08-01T04:36:05.874Z,26.11
2017-08-01T04:36:46.323Z,26.13
2017-08-01T04:37:26.783Z,26.18
2017-08-01T04:38:07.238Z,26.18
2017-08-01T04:38:47.693Z,26.13
2017-08-01T04:39:28.150Z,26.16
2017-08-01T04:40:08.605Z,26.18
2017-08-01T04:40:49.063Z,26.11
2017-08-01T04:41:29.508Z,26.24
2017-08-01T04:42:09.959Z,26.18
2017-08-01T04:42:50.417Z,26.1
2017-08-01T04:43:30.872Z,26.16
2017-08-01T04:44:11.328Z,26.16
2017-08-01T04:44:51.785Z,26.15
2017-08-01T04:45:32.239Z,26.11
2017-08-01T04:46:12.691Z,26.19
2017-08-01T04:46:53.149Z,26.15
2017-08-01T04:47:33.607Z,26.18
2017-08-01T04:48:14.065Z,26.13
2017-08-01T04:48:54.517Z,26.11
2017-08-01T04:49:34.976Z,26.11
2017-08-01T04:50:15.432Z,26.15
2017-08-01T04:50:55.892Z,26.13
2017-08-01T04:51:36.348Z,26.08
2017-08-01T04:52:16.803Z,26.22
2017-08-01T04:52:57.254Z,26.16
2017-08-01T04:53:37.709Z,26.15
2017-08-01T04:54:18.166Z,26.15
2017-08-01T04:54:58.619Z,26.18
2017-08-01T04:55:39.081Z,26.1
2017-08-01T04:56:19.536Z,26.11
2017-08-01T04:56:59.986Z,26.13
2017-08-01T04:57:40.441Z,26.16
2017-08-01T04:58:20.893Z,26.16
2017-08-01T04:59:01.352Z,26.16
2017-08-01T04:59:41.812Z,26.18
2017-08-01T05:00:22.267Z,26.13
2017-08-01T05:01:02.724Z,26.15
2017-08-01T05:01:43.182Z,26.07
2017-08-01T05:02:23.638Z,26.1
2017-08-01T05:03:04.088Z,26.08
2017-08-01T05:03:44.540Z,26.15
2017-08-01T05:04:24.990Z,26.18
2017-08-01T05:05:05.440Z,26.11
2017-08-01T05:05:45.895Z,26.13
2017-08-01T05:06:26.343Z,26.13
2017-08-01T05:07:06.793Z,26.15
2017-08-01T05:07:47.249Z,26.24
2017-08-01T05:08:27.697Z,26.15
2017-08-01T05:09:08.152Z,26.23
2017-08-01T05:09:48.614Z,26.13
2017-08-01T05:10:29.063Z,26.18
2017-08-01T05:11:09.526Z,26.18
2017-08-01T05:11:49.981Z,26.31
2017-08-01T05:12:30.436Z,26.1
2017-08-01T05:13:10.890Z,26.15
2017-08-01T05:13:51.350Z,26.24
2017-08-01T05:14:31.805Z,26.13
2017-08-01T05:15:12.261Z,26.08
2017-08-01T05:15:52.718Z,26.24
2017-08-01T05:16:33.175Z,26.15
2017-08-01T05:17:13.631Z,26.16
2017-08-01T05:17:54.088Z,26.26
2017-08-01T05:18:34.540Z,26.19
2017-08-01T05:19:14.992Z,26.16
2017-08-01T05:19:55.442Z,26.13
2017-08-01T05:20:35.908Z,26.08
2017-08-01T05:21:16.356Z,26.22
2017-08-01T05:21:56.813Z,26.19
2017-08-01T05:22:37.268Z,26.22
2017-08-01T05:23:17.730Z,26.13
2017-08-01T05:23:58.179Z,26.15
2017-08-01T05:24:38.644Z,26.16
2017-08-01T05:25:19.101Z,26.22
2017-08-01T05:25:59.548Z,26.27
2017-08-01T05:26:40.001Z,26.27
2017-08-01T05:27:20.455Z,26.22
2017-08-01T05:28:00.904Z,26.22
2017-08-01T05:28:41.351Z,26.27
2017-08-01T05:29:21.810Z,26.29
2017-08-01T05:30:02.264Z,26.16
2017-08-01T05:30:42.724Z,26.13
2017-08-01T05:31:23.178Z,26.19
2017-08-01T05:32:03.621Z,26.1
2017-08-01T05:32:44.074Z,26.1
2017-08-01T05:33:24.529Z,26.13
2017-08-01T05:34:04.986Z,26.3
2017-08-01T05:34:45.437Z,26.31
2017-08-01T05:35:25.893Z,26.26
2017-08-01T05:36:06.346Z,26.22
2017-08-01T05:36:46.800Z,26.27
2017-08-01T05:37:27.252Z,26.24
2017-08-01T05:38:07.718Z,26.27
2017-08-01T05:38:48.148Z,26.27
2017-08-01T05:39:28.597Z,26.27
2017-08-01T05:40:09.051Z,26.24
2017-08-01T05:40:49.507Z,26.24
2017-08-01T05:42:42.107Z,26.3
2017-08-01T05:43:22.556Z,26.29
2017-08-01T05:44:03.007Z,26.27
2017-08-01T05:44:43.453Z,26.34
2017-08-01T05:45:23.901Z,26.31
2017-08-01T05:46:04.402Z,26.3
2017-08-01T05:46:44.802Z,26.31
2017-08-01T05:47:25.260Z,26.29
2017-08-01T05:48:05.711Z,26.3
2017-08-01T05:48:46.164Z,26.3
2017-08-01T05:49:26.617Z,26.31
2017-08-01T05:50:07.078Z,26.36
2017-08-01T05:50:47.543Z,26.37
2017-08-01T05:51:27.972Z,26.31
2017-08-01T05:52:08.430Z,26.34
2017-08-01T05:52:48.884Z,26.39
2017-08-01T05:53:29.337Z,26.36
2017-08-01T05:54:09.799Z,26.33
2017-08-01T05:54:50.249Z,26.33
2017-08-01T05:55:30.706Z,26.37
2017-08-01T05:56:11.158Z,26.36
2017-08-01T05:56:51.612Z,26.44
2017-08-01T05:57:32.064Z,26.46
2017-08-01T05:58:12.513Z,26.44
2017-08-01T05:58:52.966Z,26.42
2017-08-01T05:59:33.470Z,26.45
2017-08-01T06:00:13.929Z,26.42
2017-08-01T06:00:54.385Z,26.46
2017-08-01T06:01:34.835Z,26.49
2017-08-01T06:02:15.289Z,26.49
2017-08-01T06:02:55.748Z,26.46
2017-08-01T06:03:36.195Z,26.49
2017-08-01T06:04:16.674Z,26.52
2017-08-01T06:04:57.128Z,26.51
2017-08-01T06:05:37.601Z,26.53
2017-08-01T06:06:18.057Z,26.52
2017-08-01T06:06:58.510Z,26.53
2017-08-01T06:07:38.956Z,26.52
2017-08-01T06:08:19.418Z,26.55
2017-08-01T06:08:59.874Z,26.59
2017-08-01T06:09:40.344Z,26.59
2017-08-01T06:10:20.786Z,26.53
2017-08-01T06:11:01.228Z,26.55
2017-08-01T06:11:41.683Z,26.53
2017-08-01T06:12:22.136Z,26.53
2017-08-01T06:13:02.594Z,26.48
2017-08-01T06:13:43.078Z,26.52
2017-08-01T06:14:23.538Z,26.53
2017-08-01T06:15:03.987Z,26.49
2017-08-01T06:15:44.455Z,26.48
2017-08-01T06:16:24.901Z,26.49
2017-08-01T06:17:05.360Z,26.49
2017-08-01T06:17:45.811Z,26.51
2017-08-01T06:18:26.267Z,26.49
2017-08-01T06:19:06.727Z,26.49
2017-08-01T06:19:47.174Z,26.44
2017-08-01T06:20:27.634Z,26.52
2017-08-01T06:21:08.089Z,26.45
2017-08-01T06:21:48.538Z,26.44
2017-08-01T06:22:28.992Z,26.46
2017-08-01T06:23:09.450Z,26.45
2017-08-01T06:23:49.923Z,26.48
2017-08-01T06:24:30.379Z,26.46
2017-08-01T06:25:10.833Z,26.48
2017-08-01T06:25:51.291Z,26.46
2017-08-01T06:26:31.736Z,26.51
2017-08-01T06:27:12.190Z,26.48
2017-08-01T06:27:52.655Z,26.46
2017-08-01T06:28:33.109Z,26.46
2017-08-01T06:29:13.562Z,26.45
2017-08-01T06:29:54.006Z,26.45
2017-08-01T06:30:34.450Z,26.42
2017-08-01T06:31:14.901Z,26.48
2017-08-01T06:31:55.363Z,26.46
2017-08-01T06:32:35.815Z,26.42
2017-08-01T06:33:16.273Z,26.48
2017-08-01T06:33:56.733Z,26.44
2017-08-01T06:34:37.178Z,26.42
2017-08-01T06:35:17.633Z,26.52
2017-08-01T06:35:58.086Z,26.48
2017-08-01T06:36:38.543Z,26.51
2017-08-01T06:37:19.015Z,26.48
2017-08-01T06:37:59.466Z,26.48
2017-08-01T06:38:39.941Z,26.48
2017-08-01T06:39:20.456Z,26.46
2017-08-01T06:40:00.905Z,26.46
2017-08-01T06:40:41.380Z,26.48
2017-08-01T06:41:21.820Z,26.49
2017-08-01T06:42:02.274Z,26.48
2017-08-01T06:42:42.746Z,26.48
2017-08-01T06:43:23.218Z,26.48
2017-08-01T06:44:03.675Z,26.48
2017-08-01T06:44:44.131Z,26.45
2017-08-01T06:45:24.604Z,26.48
2017-08-01T06:46:05.058Z,26.52
2017-08-01T06:46:45.517Z,26.52
2017-08-01T06:47:25.971Z,26.45
2017-08-01T06:48:06.420Z,26.48
2017-08-01T06:48:46.876Z,26.53
2017-08-01T06:49:27.322Z,26.53
2017-08-01T06:50:07.801Z,26.53
2017-08-01T06:50:48.239Z,26.49
2017-08-01T06:51:28.697Z,26.64
2017-08-01T06:52:09.157Z,26.56
2017-08-01T06:52:49.615Z,26.59
2017-08-01T06:53:30.072Z,26.63
2017-08-01T06:54:10.524Z,26.66
2017-08-01T06:54:50.976Z,26.52
2017-08-01T06:55:31.437Z,26.68
2017-08-01T06:56:11.890Z,26.55
2017-08-01T06:56:52.348Z,26.63
2017-08-01T06:57:32.808Z,26.64
2017-08-01T06:58:13.265Z,26.64
2017-08-01T06:58:53.723Z,26.67
2017-08-01T06:59:34.180Z,26.6
2017-08-01T07:00:14.640Z,26.59
2017-08-01T07:00:55.100Z,26.7
2017-08-01T07:01:35.557Z,26.64
2017-08-01T07:02:16.017Z,26.7
2017-08-01T07:02:56.466Z,26.73
2017-08-01T07:03:36.924Z,26.79
2017-08-01T07:04:17.392Z,26.85
2017-08-01T07:04:57.843Z,26.82
2017-08-01T07:05:38.300Z,26.76
2017-08-01T07:06:18.746Z,26.82
2017-08-01T07:06:59.197Z,26.82
2017-08-01T07:07:39.653Z,26.83
2017-08-01T07:08:20.130Z,26.88
2017-08-01T07:09:00.581Z,26.74
2017-08-01T07:09:41.050Z,26.79
2017-08-01T07:10:21.499Z,26.86
2017-08-01T07:11:01.971Z,26.74
2017-08-01T07:11:42.423Z,26.83
2017-08-01T07:12:22.944Z,26.79
2017-08-01T07:13:03.402Z,26.85
2017-08-01T07:13:43.843Z,26.85
2017-08-01T07:14:24.300Z,26.89
2017-08-01T07:15:04.755Z,26.88
2017-08-01T07:15:45.194Z,26.86
2017-08-01T07:16:25.650Z,26.85
2017-08-01T07:17:06.090Z,26.89
2017-08-01T07:17:46.543Z,26.82
2017-08-01T07:18:27.003Z,26.88
2017-08-01T07:19:07.438Z,26.96
2017-08-01T07:19:47.901Z,26.93
2017-08-01T07:20:28.657Z,27
2017-08-01T07:21:09.101Z,27
2017-08-01T07:21:49.658Z,27.01
2017-08-01T07:22:30.473Z,27.03
2017-08-01T07:23:10.816Z,27
2017-08-01T07:23:51.269Z,26.98
2017-08-01T07:24:31.726Z,27.04
2017-08-01T07:25:12.189Z,27.01
2017-08-01T07:25:52.657Z,27.03
2017-08-01T07:26:33.108Z,27.03
2017-08-01T07:27:13.558Z,27.05
2017-08-01T07:27:54.017Z,27.05
2017-08-01T07:28:34.477Z,27.03
2017-08-01T07:29:14.938Z,27.07
2017-08-01T07:29:55.400Z,27.2
2017-08-01T07:30:35.849Z,27.19
2017-08-01T07:31:16.292Z,27.11
2017-08-01T07:31:56.726Z,27.13
2017-08-01T07:32:37.224Z,27.2
2017-08-01T07:33:17.997Z,27.15
2017-08-01T07:33:58.426Z,27.18
2017-08-01T07:34:38.869Z,27.18
2017-08-01T07:35:19.325Z,27.23
2017-08-01T07:35:59.783Z,27.15
2017-08-01T07:37:57.735Z,27.22
2017-08-01T07:38:38.717Z,27.26
2017-08-01T07:39:19.127Z,27.2
2017-08-01T07:39:59.597Z,27.2
2017-08-01T07:40:40.153Z,27.2
2017-08-01T07:41:20.540Z,27.25
2017-08-01T07:42:01.007Z,27.23
2017-08-01T07:42:41.455Z,27.22
2017-08-01T07:43:21.899Z,27.3
2017-08-01T07:44:02.354Z,27.22
2017-08-01T07:44:42.807Z,27.25
2017-08-01T07:45:23.267Z,27.22
2017-08-01T07:46:03.724Z,27.26
2017-08-01T07:46:44.174Z,27.26
2017-08-01T07:47:24.788Z,27.22
2017-08-01T07:48:05.252Z,27.37
2017-08-01T07:48:45.719Z,27.37
2017-08-01T07:49:26.371Z,27.34
2017-08-01T07:50:06.826Z,27.35
2017-08-01T07:50:47.485Z,27.35
2017-08-01T07:51:27.948Z,27.33
2017-08-01T07:53:15.530Z,27.41
2017-08-01T07:53:55.982Z,27.33
2017-08-01T07:54:36.436Z,27.35
2017-08-01T07:55:17.020Z,27.35
2017-08-01T07:55:57.486Z,27.34
2017-08-01T07:56:37.944Z,27.3
2017-08-01T07:57:18.591Z,27.35
2017-08-01T07:57:59.055Z,27.26
2017-08-01T07:58:39.637Z,27.26
2017-08-01T07:59:20.086Z,27.23
2017-08-01T08:00:00.537Z,27.26
2017-08-01T08:00:41.001Z,27.22
2017-08-01T08:01:21.751Z,27.26
2017-08-01T08:02:02.324Z,27.33
2017-08-01T08:02:42.777Z,27.23
2017-08-01T08:03:23.221Z,27.2
2017-08-01T08:04:03.675Z,27.22
2017-08-01T08:04:44.153Z,27.37
2017-08-01T08:05:24.607Z,27.29
2017-08-01T08:06:05.061Z,27.25
2017-08-01T08:06:45.519Z,27.3
2017-08-01T08:07:26.113Z,27.33
2017-08-01T08:08:06.566Z,27.28
2017-08-01T08:08:47.006Z,27.33
2017-08-01T08:09:27.462Z,27.3
2017-08-01T08:10:07.999Z,27.35
2017-08-01T08:10:48.356Z,27.34
2017-08-01T08:11:29.152Z,27.35
2017-08-01T08:12:09.374Z,27.26
2017-08-01T08:12:49.867Z,27.37
2017-08-01T08:13:30.299Z,27.44
2017-08-01T08:14:10.731Z,27.38
2017-08-01T08:14:51.177Z,27.45
2017-08-01T08:15:31.633Z,27.47
2017-08-01T08:16:12.086Z,27.48
2017-08-01T08:16:52.537Z,27.47
2017-08-01T08:17:33.103Z,27.5
2017-08-01T08:18:13.439Z,27.57
2017-08-01T08:18:53.894Z,27.53
2017-08-01T08:19:34.799Z,27.55
2017-08-01T08:20:15.282Z,27.61
2017-08-01T08:20:55.742Z,27.53
2017-08-01T08:21:36.198Z,27.57
2017-08-01T08:22:16.650Z,27.63
2017-08-01T08:22:57.103Z,27.68
2017-08-01T08:23:37.549Z,27.67
2017-08-01T08:24:17.995Z,27.71
2017-08-01T08:24:59.132Z,27.64
2017-08-01T08:25:39.038Z,27.75
2017-08-01T08:26:19.484Z,27.76
2017-08-01T08:28:07.138Z,27.79
2017-08-01T08:28:47.571Z,27.81
2017-08-01T08:29:28.014Z,27.85
2017-08-01T08:30:08.594Z,27.75
2017-08-01T08:30:49.362Z,27.85
2017-08-01T08:31:29.663Z,27.83
2017-08-01T08:32:10.112Z,27.9
2017-08-01T08:32:50.558Z,27.93
2017-08-01T08:33:31.016Z,28
2017-08-01T08:35:28.997Z,27.94
2017-08-01T08:36:09.460Z,27.97
2017-08-01T08:36:49.905Z,28
2017-08-01T08:37:30.356Z,28.01
2017-08-01T08:38:10.808Z,27.88
2017-08-01T08:38:51.333Z,27.95
2017-08-01T08:39:31.727Z,28.03
2017-08-01T08:40:12.174Z,28
2017-08-01T08:40:52.924Z,27.94
2017-08-01T08:41:33.212Z,27.95
2017-08-01T08:42:13.681Z,27.88
2017-08-01T08:42:54.166Z,27.83
2017-08-01T08:43:35.056Z,27.83
2017-08-01T08:45:12.504Z,27.76
2017-08-01T08:45:52.949Z,27.79
2017-08-01T08:46:33.401Z,27.72
2017-08-01T08:47:13.859Z,27.76
2017-08-01T08:47:54.306Z,27.75
2017-08-01T08:48:34.738Z,27.76
2017-08-01T08:49:15.378Z,27.79
2017-08-01T08:49:55.810Z,27.71
2017-08-01T08:50:36.337Z,27.67